createdAt,value
2018-08-03T00:02:00.500Z,25.70
2018-08-03T00:04:32.592Z,25.60
2018-08-03T00:07:03.860Z,25.80
2018-08-03T00:09:35.295Z,25.80
2018-08-03T00:12:06.627Z,25.60
2018-08-03T00:14:38.068Z,25.70
2018-08-03T00:19:40.361Z,25.20
2018-08-03T00:22:11.705Z,25.30
2018-08-03T00:24:43.173Z,25.30
2018-08-03T00:27:14.612Z,25.30
2018-08-03T00:29:46.014Z,25.50
2018-08-03T00:32:17.411Z,25.50
2018-08-03T00:34:48.595Z,25.60
2018-08-03T00:37:19.785Z,25.40
2018-08-03T00:42:22.080Z,25.00
2018-08-03T00:47:23.954Z,25.10
2018-08-03T00:49:55.222Z,25.20
2018-08-03T00:52:26.562Z,25.30
2018-08-03T00:54:57.756Z,25.10
2018-08-03T00:57:29.063Z,25.20
2018-08-03T01:00:00.577Z,25.30
2018-08-03T01:02:32.321Z,25.40
2018-08-03T01:05:03.826Z,25.50
2018-08-03T01:07:35.308Z,25.40
2018-08-03T01:10:06.623Z,25.40
2018-08-03T01:12:38.040Z,25.50
2018-08-03T01:15:09.494Z,25.40
2018-08-03T01:17:41.034Z,25.30
2018-08-03T01:20:12.522Z,25.30
2018-08-03T01:22:43.939Z,25.30
2018-08-03T01:25:15.331Z,25.30
2018-08-03T01:27:46.840Z,25.20
2018-08-03T01:30:18.123Z,25.10
2018-08-03T01:32:49.524Z,24.80
2018-08-03T01:35:21.049Z,24.60
2018-08-03T01:37:52.414Z,24.70
2018-08-03T01:40:23.904Z,24.80
2018-08-03T01:42:55.374Z,24.80
2018-08-03T01:45:26.884Z,24.40
2018-08-03T01:47:58.186Z,24.50
2018-08-03T01:50:29.579Z,24.70
2018-08-03T01:53:00.854Z,24.80
2018-08-03T01:55:32.511Z,24.90
2018-08-03T02:00:34.674Z,25.00
2018-08-03T02:03:05.861Z,24.90
2018-08-03T02:05:37.295Z,24.80
2018-08-03T02:08:08.745Z,24.90
2018-08-03T02:10:40.084Z,24.80
2018-08-03T02:15:42.451Z,24.70
2018-08-03T02:18:13.841Z,24.90
2018-08-03T02:20:45.394Z,25.00
2018-08-03T02:23:17.008Z,24.90
2018-08-03T02:25:48.484Z,24.90
2018-08-03T02:30:50.365Z,24.70
2018-08-03T02:33:21.808Z,24.50
2018-08-03T02:35:53.293Z,24.50
2018-08-03T02:38:24.679Z,24.60
2018-08-03T02:40:56.115Z,24.60
2018-08-03T02:43:27.599Z,24.60
2018-08-03T02:45:58.968Z,24.60
2018-08-03T02:48:30.455Z,24.40
2018-08-03T02:51:01.978Z,24.40
2018-08-03T02:53:33.514Z,24.50
2018-08-03T02:56:04.902Z,24.40
2018-08-03T02:58:36.411Z,24.20
2018-08-03T03:01:07.850Z,24.20
2018-08-03T03:03:39.125Z,24.20
2018-08-03T03:06:10.519Z,24.20
2018-08-03T03:08:41.839Z,24.40
2018-08-03T03:11:13.597Z,24.40
2018-08-03T03:13:45.347Z,24.20
2018-08-03T03:16:16.775Z,24.20
2018-08-03T03:18:48.137Z,24.00
2018-08-03T03:21:19.383Z,24.20
2018-08-03T03:23:50.638Z,24.10
2018-08-03T03:26:22.085Z,24.10
2018-08-03T03:28:53.576Z,24.20
2018-08-03T03:31:24.874Z,24.10
2018-08-03T03:33:56.505Z,24.20
2018-08-03T03:36:27.968Z,24.30
2018-08-03T03:38:59.306Z,24.40
2018-08-03T03:41:30.766Z,24.30
2018-08-03T03:44:02.465Z,24.40
2018-08-03T03:46:33.903Z,24.40
2018-08-03T03:49:05.327Z,24.40
2018-08-03T03:51:37.139Z,24.30
2018-08-03T03:54:08.473Z,24.30
2018-08-03T03:56:39.988Z,24.20
2018-08-03T03:59:11.524Z,24.20
2018-08-03T04:01:43.095Z,24.20
2018-08-03T04:04:14.639Z,24.40
2018-08-03T04:06:46.032Z,24.40
2018-08-03T04:09:17.433Z,24.50
2018-08-03T04:14:19.526Z,24.70
2018-08-03T04:16:50.915Z,24.90
2018-08-03T04:19:22.446Z,25.00
2018-08-03T04:21:53.910Z,25.10
2018-08-03T04:24:25.255Z,25.10
2018-08-03T04:26:56.788Z,25.30
2018-08-03T04:29:28.085Z,25.50
2018-08-03T04:31:59.445Z,25.70
2018-08-03T04:34:31.015Z,25.90
2018-08-03T04:37:02.212Z,26.10
2018-08-03T04:39:33.872Z,26.30
2018-08-03T04:42:05.792Z,26.40
2018-08-03T04:44:37.591Z,26.50
2018-08-03T04:47:08.961Z,26.70
2018-08-03T04:49:40.522Z,26.70
2018-08-03T04:52:12.310Z,27.00
2018-08-03T04:54:43.544Z,27.30
2018-08-03T04:57:15.100Z,27.60
2018-08-03T04:59:46.565Z,27.70
2018-08-03T05:02:18.212Z,27.80
2018-08-03T05:07:20.634Z,27.90
2018-08-03T05:09:52.245Z,28.00
2018-08-03T05:12:23.691Z,28.30
2018-08-03T05:14:55.151Z,28.60
2018-08-03T05:17:26.443Z,28.90
2018-08-03T05:19:57.962Z,29.10
2018-08-03T05:22:29.340Z,29.40
2018-08-03T05:25:00.649Z,29.50
2018-08-03T05:27:32.234Z,29.70
2018-08-03T05:30:03.828Z,29.90
2018-08-03T05:32:35.243Z,29.60
2018-08-03T05:35:07.620Z,29.70
2018-08-03T05:37:39.132Z,30.10
2018-08-03T05:40:10.477Z,30.10
2018-08-03T05:42:41.840Z,30.20
2018-08-03T05:45:13.175Z,30.30
2018-08-03T05:47:44.551Z,30.20
2018-08-03T05:50:16.297Z,30.20
2018-08-03T05:52:47.839Z,30.30
2018-08-03T05:55:19.684Z,30.20
2018-08-03T06:00:22.166Z,31.10
2018-08-03T06:02:53.729Z,31.20
2018-08-03T06:05:24.982Z,31.50
2018-08-03T06:07:57.120Z,31.70
2018-08-03T06:10:28.497Z,31.60
2018-08-03T06:12:59.983Z,32.20
2018-08-03T06:15:31.508Z,32.60
2018-08-03T06:18:03.376Z,32.70
2018-08-03T06:20:34.712Z,33.10
2018-08-03T06:23:06.282Z,33.10
2018-08-03T06:25:37.794Z,33.40
2018-08-03T06:28:09.100Z,33.80
2018-08-03T06:30:40.639Z,33.90
2018-08-03T06:33:12.221Z,33.90
2018-08-03T06:35:43.780Z,34.50
2018-08-03T06:38:15.186Z,34.70
2018-08-03T06:40:46.708Z,34.50
2018-08-03T06:43:18.180Z,34.40
2018-08-03T06:45:49.416Z,34.50
2018-08-03T06:48:20.796Z,34.20
2018-08-03T06:50:52.070Z,34.60
2018-08-03T06:53:23.498Z,34.90
2018-08-03T06:55:55.366Z,34.80
2018-08-03T06:58:26.585Z,34.30
2018-08-03T07:00:58.965Z,34.60
2018-08-03T07:03:30.541Z,34.80
2018-08-03T07:06:01.832Z,34.80
2018-08-03T07:08:33.390Z,34.70
2018-08-03T07:11:04.743Z,35.20
2018-08-03T07:13:36.284Z,35.20
2018-08-03T07:16:07.838Z,34.90
2018-08-03T07:18:39.367Z,35.20
2018-08-03T07:21:11.242Z,36.40
2018-08-03T07:23:42.686Z,37.00
2018-08-03T07:26:14.138Z,36.90
2018-08-03T07:28:45.527Z,37.00
2018-08-03T07:31:17.276Z,36.80
2018-08-03T07:33:49.336Z,37.40
2018-08-03T07:36:20.916Z,37.40
2018-08-03T07:38:52.774Z,36.90
2018-08-03T07:41:24.255Z,37.40
2018-08-03T07:43:55.560Z,36.70
2018-08-03T07:46:27.211Z,37.20
2018-08-03T07:48:58.612Z,37.50
2018-08-03T07:51:29.890Z,38.20
2018-08-03T07:54:01.548Z,37.80
2018-08-03T07:56:32.781Z,37.50
2018-08-03T07:59:04.496Z,38.20
2018-08-03T08:01:36.094Z,38.00
2018-08-03T08:04:07.296Z,38.00
2018-08-03T08:06:38.391Z,38.10
2018-08-03T08:09:12.058Z,38.00
2018-08-03T08:11:43.826Z,37.90
2018-08-03T08:14:15.244Z,37.80
2018-08-03T08:16:47.158Z,38.00
2018-08-03T08:19:18.291Z,37.20
2018-08-03T08:21:49.615Z,37.40
2018-08-03T08:24:20.980Z,37.90
2018-08-03T08:26:52.515Z,38.80
2018-08-03T08:29:24.255Z,38.60
2018-08-03T08:31:55.815Z,37.40
2018-08-03T08:34:27.403Z,37.00
2018-08-03T08:36:58.899Z,37.50
2018-08-03T08:39:30.433Z,38.00
2018-08-03T08:42:01.900Z,38.00
2018-08-03T08:44:33.100Z,38.20
2018-08-03T08:47:04.652Z,38.10
2018-08-03T08:49:35.944Z,39.40
2018-08-03T08:52:07.454Z,39.10
2018-08-03T08:54:39.118Z,38.50
2018-08-03T08:57:10.597Z,38.20
2018-08-03T08:59:41.942Z,37.60
2018-08-03T09:02:13.463Z,37.80
2018-08-03T09:04:45.711Z,37.20
2018-08-03T09:07:16.881Z,37.20
2018-08-03T09:09:48.263Z,37.60
2018-08-03T09:12:19.713Z,37.50
2018-08-03T09:14:51.168Z,36.10
2018-08-03T09:17:22.476Z,36.90
2018-08-03T09:19:54.007Z,36.80
2018-08-03T09:22:25.495Z,37.40
2018-08-03T09:24:56.934Z,37.00
2018-08-03T09:27:28.361Z,37.20
2018-08-03T09:29:59.643Z,37.10
2018-08-03T09:32:31.263Z,37.40
2018-08-03T09:35:02.729Z,38.60
2018-08-03T09:37:34.181Z,39.20
2018-08-03T09:40:05.850Z,38.00
2018-08-03T09:42:37.134Z,37.90
2018-08-03T09:45:08.735Z,37.70
2018-08-03T09:47:40.006Z,38.50
2018-08-03T09:50:11.607Z,38.40
2018-08-03T09:52:43.184Z,38.40
2018-08-03T09:55:14.831Z,37.50
2018-08-03T09:57:46.285Z,37.60
2018-08-03T10:00:18.221Z,37.00
2018-08-03T10:02:49.699Z,37.10
2018-08-03T10:05:21.165Z,36.90
2018-08-03T10:07:52.643Z,37.10
2018-08-03T10:10:24.131Z,36.80
2018-08-03T10:12:55.470Z,36.50
2018-08-03T10:15:26.789Z,36.10
2018-08-03T10:17:58.508Z,36.60
2018-08-03T10:20:30.062Z,36.70
2018-08-03T10:23:01.415Z,37.20
2018-08-03T10:25:32.957Z,38.30
2018-08-03T10:28:04.365Z,38.00
2018-08-03T10:30:35.799Z,37.80
2018-08-03T10:33:08.057Z,37.40
2018-08-03T10:35:39.511Z,37.10
2018-08-03T10:38:11.295Z,36.50
2018-08-03T10:40:42.875Z,36.60
2018-08-03T10:43:14.206Z,37.20
2018-08-03T10:45:45.733Z,36.40
2018-08-03T10:48:17.191Z,36.60
2018-08-03T10:50:48.807Z,36.80
2018-08-03T10:53:20.347Z,36.60
2018-08-03T10:55:51.734Z,36.40
2018-08-03T10:58:23.290Z,36.30
2018-08-03T11:00:54.778Z,35.90
2018-08-03T11:03:26.540Z,35.60
2018-08-03T11:05:58.039Z,35.50
2018-08-03T11:08:29.511Z,35.70
2018-08-03T11:11:00.760Z,35.70
2018-08-03T11:13:32.413Z,35.80
2018-08-03T11:16:03.756Z,35.80
2018-08-03T11:18:35.160Z,35.70
2018-08-03T11:21:06.721Z,35.30
2018-08-03T11:26:09.156Z,34.70
2018-08-03T11:28:40.679Z,34.40
2018-08-03T11:31:12.038Z,33.90
2018-08-03T11:33:43.660Z,33.90
2018-08-03T11:36:15.484Z,34.00
2018-08-03T11:38:46.966Z,34.00
2018-08-03T11:41:18.427Z,33.90
2018-08-03T11:43:50.049Z,33.80
2018-08-03T11:46:21.360Z,33.70
2018-08-03T11:48:52.683Z,34.10
2018-08-03T11:51:24.090Z,34.00
2018-08-03T11:53:55.741Z,34.20
2018-08-03T11:56:27.086Z,34.50
2018-08-03T11:58:58.490Z,34.60
2018-08-03T12:01:29.773Z,34.70
2018-08-03T12:04:01.610Z,35.20
2018-08-03T12:06:33.096Z,34.80
2018-08-03T12:09:04.944Z,34.40
2018-08-03T12:11:36.152Z,34.40
2018-08-03T12:14:07.608Z,35.10
2018-08-03T12:16:38.840Z,35.40
2018-08-03T12:19:10.404Z,35.70
2018-08-03T12:21:42.068Z,35.70
2018-08-03T12:24:13.500Z,35.20
2018-08-03T12:26:44.977Z,34.40
2018-08-03T12:29:16.344Z,33.80
2018-08-03T12:31:47.902Z,33.90
2018-08-03T12:34:19.526Z,33.90
2018-08-03T12:36:51.144Z,34.40
2018-08-03T12:39:22.662Z,34.50
2018-08-03T12:41:54.090Z,33.80
2018-08-03T12:44:25.533Z,33.90
2018-08-03T12:46:56.900Z,34.50
2018-08-03T12:49:28.389Z,34.40
2018-08-03T12:51:59.665Z,34.30
2018-08-03T12:54:32.131Z,34.60
2018-08-03T12:57:03.785Z,34.80
2018-08-03T12:59:35.315Z,34.60
2018-08-03T13:02:06.801Z,34.60
2018-08-03T13:04:38.328Z,34.00
2018-08-03T13:07:10.185Z,33.80
2018-08-03T13:09:41.392Z,34.00
2018-08-03T13:12:12.855Z,33.90
2018-08-03T13:14:44.216Z,33.80
2018-08-03T13:17:15.577Z,34.00
2018-08-03T13:19:46.839Z,34.00
2018-08-03T13:22:23.361Z,34.50
2018-08-03T13:24:55.159Z,34.60
2018-08-03T13:27:26.610Z,34.50
2018-08-03T13:29:58.159Z,34.30
2018-08-03T13:32:29.596Z,34.30
2018-08-03T13:35:00.955Z,34.40
2018-08-03T13:37:32.497Z,34.80
2018-08-03T13:40:03.740Z,35.20
2018-08-03T13:42:35.259Z,35.20
2018-08-03T13:45:06.749Z,35.10
2018-08-03T13:47:38.310Z,35.30
2018-08-03T13:50:09.992Z,35.20
2018-08-03T13:52:41.391Z,34.40
2018-08-03T13:55:13.495Z,34.50
2018-08-03T13:57:44.949Z,34.60
2018-08-03T14:00:16.236Z,35.00
2018-08-03T14:02:47.860Z,35.10
2018-08-03T14:05:19.317Z,35.40
2018-08-03T14:07:51.103Z,35.50
2018-08-03T14:10:22.801Z,35.70
2018-08-03T14:12:54.793Z,35.80
2018-08-03T14:15:26.199Z,35.90
2018-08-03T14:17:57.490Z,36.10
2018-08-03T14:20:28.939Z,35.90
2018-08-03T14:23:00.473Z,35.70
2018-08-03T14:25:32.038Z,35.30
2018-08-03T14:28:03.496Z,35.00
2018-08-03T14:30:35.114Z,34.80
2018-08-03T14:33:06.752Z,34.40
2018-08-03T14:35:38.287Z,34.30
2018-08-03T14:38:10.220Z,34.20
2018-08-03T14:40:41.561Z,34.40
2018-08-03T14:43:13.098Z,34.60
2018-08-03T14:45:44.651Z,34.70
2018-08-03T14:48:16.051Z,34.60
2018-08-03T14:50:47.230Z,34.50
2018-08-03T14:53:18.900Z,34.00
2018-08-03T14:55:50.339Z,34.10
2018-08-03T14:58:21.947Z,33.80
2018-08-03T15:00:53.507Z,33.80
2018-08-03T15:03:25.026Z,33.90
2018-08-03T15:05:56.747Z,33.70
2018-08-03T15:08:27.944Z,33.60
2018-08-03T15:10:59.590Z,33.60
2018-08-03T15:13:31.460Z,31.60
2018-08-03T15:16:02.919Z,30.50
2018-08-03T15:18:34.862Z,29.30
2018-08-03T15:21:06.533Z,27.90
2018-08-03T15:23:38.072Z,27.00
2018-08-03T15:26:09.914Z,26.30
2018-08-03T15:28:41.893Z,25.90
2018-08-03T15:31:13.144Z,25.10
2018-08-03T15:33:44.516Z,24.30
2018-08-03T15:36:16.288Z,24.50
2018-08-03T15:38:47.872Z,25.10
2018-08-03T15:41:19.579Z,24.80
2018-08-03T15:43:51.264Z,24.70
2018-08-03T15:46:22.648Z,24.20
2018-08-03T15:48:54.124Z,24.10
2018-08-03T15:51:25.503Z,24.40
2018-08-03T15:53:57.285Z,24.60
2018-08-03T15:58:59.676Z,24.90
2018-08-03T16:01:30.949Z,25.10
2018-08-03T16:04:02.304Z,25.50
2018-08-03T16:06:33.791Z,26.00
2018-08-03T16:09:07.148Z,26.30
2018-08-03T16:11:39.395Z,26.40
2018-08-03T16:14:11.274Z,26.50
2018-08-03T16:16:42.753Z,26.80
2018-08-03T16:19:14.233Z,26.80
2018-08-03T16:21:45.861Z,26.80
2018-08-03T16:24:17.476Z,26.90
2018-08-03T16:29:19.800Z,27.00
2018-08-03T16:31:51.125Z,27.00
2018-08-03T16:34:22.882Z,27.00
2018-08-03T16:36:54.243Z,26.70
2018-08-03T16:39:25.744Z,26.90
2018-08-03T16:41:57.312Z,27.00
2018-08-03T16:44:28.711Z,27.10
2018-08-03T16:47:00.261Z,27.00
2018-08-03T16:49:32.074Z,27.10
2018-08-03T16:52:03.676Z,27.10
2018-08-03T16:54:35.518Z,26.90
2018-08-03T16:57:06.766Z,27.00
2018-08-03T16:59:38.387Z,27.10
2018-08-03T17:02:09.871Z,27.40
2018-08-03T17:04:41.398Z,27.40
2018-08-03T17:07:12.572Z,27.50
2018-08-03T17:09:44.193Z,27.30
2018-08-03T17:12:15.584Z,27.40
2018-08-03T17:14:47.215Z,27.60
2018-08-03T17:17:18.868Z,27.90
2018-08-03T17:19:50.565Z,27.80
2018-08-03T17:22:22.392Z,27.80
2018-08-03T17:24:53.855Z,27.80
2018-08-03T17:27:25.382Z,27.80
2018-08-03T17:29:56.928Z,27.80
2018-08-03T17:32:28.283Z,27.80
2018-08-03T17:34:59.541Z,27.80
2018-08-03T17:37:30.890Z,27.70
2018-08-03T17:40:02.363Z,27.60
2018-08-03T17:42:33.851Z,27.10
2018-08-03T17:45:05.439Z,26.80
2018-08-03T17:47:36.738Z,26.90
2018-08-03T17:50:08.422Z,26.90
2018-08-03T17:55:11.117Z,26.70
2018-08-03T17:57:42.614Z,26.80
2018-08-03T18:00:13.976Z,27.00
2018-08-03T18:02:45.467Z,27.10
2018-08-03T18:05:16.949Z,27.10
2018-08-03T18:07:48.418Z,27.10
2018-08-03T18:10:19.925Z,27.10
2018-08-03T18:12:51.291Z,26.70
2018-08-03T18:15:22.864Z,26.40
2018-08-03T18:17:54.580Z,26.30
2018-08-03T18:20:26.170Z,26.20
2018-08-03T18:22:57.640Z,26.10
2018-08-03T18:25:29.120Z,26.00
2018-08-03T18:28:00.595Z,25.90
2018-08-03T18:30:32.057Z,26.20
2018-08-03T18:33:03.690Z,26.20
2018-08-03T18:35:35.368Z,25.80
2018-08-03T18:38:06.847Z,25.70
2018-08-03T18:40:38.370Z,25.70
2018-08-03T18:43:09.780Z,25.80
2018-08-03T18:45:41.564Z,25.60
2018-08-03T18:48:13.101Z,25.70
2018-08-03T18:50:45.167Z,25.70
2018-08-03T18:53:16.384Z,25.60
2018-08-03T18:55:48.136Z,25.70
2018-08-03T18:58:19.748Z,25.70
2018-08-03T19:00:51.308Z,25.70
2018-08-03T19:03:23.352Z,25.50
2018-08-03T19:05:54.888Z,25.70
2018-08-03T19:08:26.559Z,25.90
2018-08-03T19:10:58.017Z,25.70
2018-08-03T19:13:29.632Z,25.60
2018-08-03T19:16:01.417Z,25.60
2018-08-03T19:18:32.937Z,25.60
2018-08-03T19:21:04.446Z,25.90
2018-08-03T19:23:36.321Z,25.80
2018-08-03T19:26:07.863Z,25.70
2018-08-03T19:28:39.433Z,25.50
2018-08-03T19:31:11.083Z,25.60
2018-08-03T19:33:42.479Z,25.80
2018-08-03T19:36:14.174Z,25.50
2018-08-03T19:38:45.927Z,25.60
2018-08-03T19:41:17.316Z,25.70
2018-08-03T19:43:48.739Z,25.60
2018-08-03T19:46:20.166Z,25.60
2018-08-03T19:48:51.582Z,25.70
2018-08-03T19:51:23.083Z,25.70
2018-08-03T19:53:54.640Z,25.60
2018-08-03T19:56:26.012Z,25.70
2018-08-03T19:58:57.389Z,25.80
2018-08-03T20:01:28.892Z,25.70
2018-08-03T20:04:00.436Z,25.70
2018-08-03T20:06:32.053Z,25.70
2018-08-03T20:09:04.886Z,25.70
2018-08-03T20:11:36.479Z,25.50
2018-08-03T20:14:08.086Z,25.50
2018-08-03T20:16:39.466Z,25.40
2018-08-03T20:19:10.862Z,25.50
2018-08-03T20:21:42.605Z,25.60
2018-08-03T20:24:13.968Z,25.60
2018-08-03T20:26:45.391Z,25.60
2018-08-03T20:29:16.924Z,25.40
2018-08-03T20:31:48.662Z,25.30
2018-08-03T20:34:20.564Z,25.50
2018-08-03T20:36:51.979Z,25.50
2018-08-03T20:39:23.347Z,25.30
2018-08-03T20:41:54.664Z,25.20
2018-08-03T20:44:26.352Z,25.10
2018-08-03T20:46:57.847Z,25.10
2018-08-03T20:49:29.176Z,25.10
2018-08-03T20:52:00.786Z,25.20
2018-08-03T20:54:32.372Z,25.10
2018-08-03T20:57:03.797Z,25.10
2018-08-03T20:59:35.148Z,25.10
2018-08-03T21:02:06.823Z,25.00
2018-08-03T21:04:38.451Z,25.10
2018-08-03T21:07:09.883Z,25.10
2018-08-03T21:09:41.352Z,25.00
2018-08-03T21:12:12.711Z,25.00
2018-08-03T21:14:44.118Z,25.00
2018-08-03T21:17:16.000Z,25.10
2018-08-03T21:19:47.549Z,25.10
2018-08-03T21:22:19.351Z,25.20
2018-08-03T21:24:50.971Z,25.10
2018-08-03T21:27:22.425Z,25.10
2018-08-03T21:29:53.839Z,25.10
2018-08-03T21:32:25.302Z,25.20
2018-08-03T21:34:56.934Z,25.20
2018-08-03T21:37:28.524Z,25.10
2018-08-03T21:40:00.264Z,24.60
2018-08-03T21:42:31.879Z,24.60
2018-08-03T21:45:03.360Z,24.60
2018-08-03T21:47:35.190Z,24.50
2018-08-03T21:50:06.982Z,24.60
2018-08-03T21:52:38.454Z,24.70
2018-08-03T21:55:09.897Z,24.50
2018-08-03T21:57:41.567Z,24.60
2018-08-03T22:00:19.609Z,24.60
2018-08-03T22:02:51.151Z,24.60
2018-08-03T22:05:22.580Z,24.70
2018-08-03T22:07:54.180Z,24.70
2018-08-03T22:10:25.815Z,24.60
2018-08-03T22:15:28.309Z,24.60
2018-08-03T22:17:59.767Z,24.50
2018-08-03T22:20:31.182Z,24.60
2018-08-03T22:23:02.844Z,24.70
2018-08-03T22:25:34.458Z,24.50
2018-08-03T22:28:06.006Z,24.50
2018-08-03T22:30:37.388Z,24.50
2018-08-03T22:33:08.852Z,24.60
2018-08-03T22:35:40.299Z,24.40
2018-08-03T22:38:11.786Z,24.60
2018-08-03T22:40:43.062Z,24.80
2018-08-03T22:43:14.530Z,24.70
2018-08-03T22:45:45.983Z,24.60
2018-08-03T22:48:17.518Z,24.50
2018-08-03T22:50:49.260Z,24.50
2018-08-03T22:53:20.623Z,24.20
2018-08-03T22:55:52.060Z,24.40
2018-08-03T22:58:23.543Z,24.60
2018-08-03T23:00:55.171Z,24.40
2018-08-03T23:03:26.716Z,24.40
2018-08-03T23:05:58.075Z,24.40
2018-08-03T23:08:30.096Z,24.20
2018-08-03T23:11:01.545Z,24.20
2018-08-03T23:13:33.092Z,24.30
2018-08-03T23:16:04.686Z,24.30
2018-08-03T23:18:36.228Z,24.40
2018-08-03T23:23:38.576Z,24.40
2018-08-03T23:26:10.112Z,24.40
2018-08-03T23:28:42.112Z,24.40
2018-08-03T23:31:13.398Z,24.30
2018-08-03T23:33:45.052Z,24.20
2018-08-03T23:36:16.660Z,24.10
2018-08-03T23:38:48.392Z,24.20
2018-08-03T23:41:19.875Z,24.20
2018-08-03T23:43:51.428Z,24.10
2018-08-03T23:46:22.915Z,24.10
2018-08-03T23:48:54.246Z,24.20
2018-08-03T23:51:25.697Z,24.00
2018-08-03T23:53:57.228Z,24.00
2018-08-03T23:56:29.815Z,24.00
2018-08-03T23:59:01.184Z,24.00
